Time;durP1;ratioP1;P1;durP2;ratioP2;P2;SDS_P1;SDS_P2;PMS_P1;PMS_P2;Temp;Humidity;BMP_temperature;BMP_pressure;BME280_temperature;BME280_humidity;BME280_pressure;Samples;Min_cycle;Max_cycle;Signal;HPM_P1;HPM_P2
2023/11/23 00:03:36;;;;;;;43.20;21.20;;;;;;;-1.18;100.00;101042.99;223733;1266;139282;-81
2023/11/23 00:15:38;;;;;;;42.30;20.80;;;;;;;-1.10;100.00;101009.49;223585;1267;139360;-81
2023/11/23 00:27:41;;;;;;;39.90;20.00;;;;;;;-1.03;100.00;100978.98;223073;1267;139811;-82
2023/11/23 00:33:40;;;;;;;;;;;;;;;;;;;;;
2023/11/23 00:39:42;;;;;;;43.10;21.10;;;;;;;-0.95;100.00;100953.34;223024;1267;140536;-81
2023/11/23 00:45:43;;;;;;;;;;;;;;;;;;;;;
2023/11/23 00:51:21;;;;;;;;;;;;;;;;;;;;;
2023/11/23 00:57:23;;;;;;;38.90;18.90;;;;;;;-0.84;100.00;100878.96;223171;1267;140314;-82
2023/11/23 01:03:26;;;;;;;42.30;20.20;;;;;;;-0.80;100.00;100872.43;223642;1267;139335;-82
2023/11/23 01:09:26;;;;;;;38.20;19.80;;;;;;;-0.75;100.00;100864.64;223161;1268;140797;-83
2023/11/23 01:21:28;;;;;;;41.70;19.80;;;;;;;-0.68;100.00;100844.10;223428;1267;140649;-82
2023/11/23 01:27:28;;;;;;;40.80;19.70;;;;;;;-0.67;100.00;100834.84;223115;1267;140182;-83
2023/11/23 01:39:30;;;;;;;38.50;19.00;;;;;;;-0.61;100.00;100800.52;223187;1267;140015;-83
2023/11/23 01:45:31;;;;;;;42.10;19.20;;;;;;;-0.57;100.00;100779.82;223753;1267;140200;-83
2023/11/23 01:51:26;;;;;;;39.70;18.90;;;;;;;-0.54;100.00;100755.17;223591;1266;249025;-82
2023/11/23 01:57:27;;;;;;;37.40;18.10;;;;;;;-0.51;100.00;100730.84;223168;1269;140167;-82
2023/11/23 02:03:21;;;;;;;38.10;17.80;;;;;;;-0.46;100.00;100707.52;223625;1267;140444;-81
2023/11/23 02:09:22;;;;;;;43.40;19.20;;;;;;;-0.45;100.00;100685.05;223123;1267;140482;-83
2023/11/23 02:21:25;;;;;;;37.50;17.80;;;;;;;-0.39;100.00;100652.17;223146;1267;140739;-83
2023/11/23 02:27:15;;;;;;;35.90;17.00;;;;;;;-0.35;100.00;100635.77;223130;1267;140148;-85
2023/11/23 02:33:17;;;;;;;39.50;18.10;;;;;;;-0.33;100.00;100632.04;223744;1267;139891;-83
2023/11/23 02:39:18;;;;;;;39.70;18.40;;;;;;;-0.29;100.00;100620.77;223113;1266;140173;-83
2023/11/23 02:45:19;;;;;;;36.60;17.70;;;;;;;-0.26;100.00;100607.35;223664;1267;140132;-83
2023/11/23 02:51:20;;;;;;;37.70;18.00;;;;;;;-0.22;100.00;100603.03;223088;1267;247022;-83
2023/11/23 02:57:13;;;;;;;;;;;;;;;;;;;;;
2023/11/23 03:03:21;;;;;;;38.80;17.50;;;;;;;-0.15;100.00;100551.24;223603;1267;139817;-83
2023/11/23 03:09:23;;;;;;;39.10;18.30;;;;;;;-0.11;100.00;100543.20;223135;1270;140309;-84
2023/11/23 03:15:23;;;;;;;41.00;18.50;;;;;;;-0.07;100.00;100538.57;223699;1266;139702;-83
2023/11/23 03:21:20;;;;;;;;;;;;;;;;;;;;;
2023/11/23 03:27:22;;;;;;;40.90;18.90;;;;;;;0.00;100.00;100528.73;223100;1267;142787;-84
2023/11/23 03:33:17;;;;;;;38.20;17.70;;;;;;;0.05;100.00;100513.36;223707;1267;139713;-84
2023/11/23 03:39:09;;;;;;;36.80;17.50;;;;;;;0.08;100.00;100478.70;223172;1268;140315;-83
2023/11/23 03:45:35;;;;;;;36.10;17.30;;;;;;;0.11;100.00;100471.16;223763;1267;139609;-84
2023/11/23 03:57:25;;;;;;;34.40;15.20;;;;;;;0.24;100.00;100465.11;222901;1267;140712;-84
2023/11/23 04:03:38;;;;;;;;;;;;;;;;;;;;;
2023/11/23 04:09:34;;;;;;;30.20;15.00;;;;;;;0.33;100.00;100425.10;223197;1267;141162;-87
2023/11/23 04:15:39;;;;;;;;;;;;;;;;;;;;;
2023/11/23 04:21:51;;;;;;;31.60;15.10;;;;;;;0.38;100.00;100398.38;223593;1267;249417;-84
2023/11/23 04:27:54;;;;;;;30.20;14.10;;;;;;;0.42;100.00;100390.16;223025;1267;141214;-82
2023/11/23 04:34:01;;;;;;;31.10;14.10;;;;;;;0.47;100.00;100376.17;223659;1267;140030;-84
2023/11/23 04:45:38;;;;;;;;;;;;;;;;;;;;;
2023/11/23 04:51:42;;;;;;;27.80;14.70;;;;;;;0.60;100.00;100340.90;223377;1266;384643;-84
2023/11/23 04:57:36;;;;;;;27.10;12.80;;;;;;;0.67;100.00;100321.46;223081;1270;141073;-85
2023/11/23 05:04:00;;;;;;;33.70;12.50;;;;;;;0.71;100.00;100325.92;223687;1267;139762;-84
2023/11/23 05:09:38;;;;;;;23.30;11.70;;;;;;;0.78;100.00;100320.20;223033;1268;141998;-84
2023/11/23 05:15:32;;;;;;;;;;;;;;;;;;;;;
2023/11/23 05:21:33;;;;;;;;;;;;;;;;;;;;;
2023/11/23 05:27:39;;;;;;;28.60;15.40;;;;;;;0.98;100.00;100311.11;222997;1268;141162;-84
2023/11/23 05:33:29;;;;;;;27.40;13.20;;;;;;;1.06;100.00;100289.52;223529;1268;138960;-82
2023/11/23 05:39:30;;;;;;;26.10;13.10;;;;;;;1.14;100.00;100258.33;222926;1268;140614;-83
2023/11/23 05:45:32;;;;;;;25.00;12.50;;;;;;;1.21;100.00;100248.29;223687;1267;139087;-84
2023/11/23 05:51:17;;;;;;;28.40;15.70;;;;;;;1.26;100.00;100243.89;223387;1268;140343;-83
2023/11/23 05:57:18;;;;;;;28.50;14.50;;;;;;;1.30;100.00;100228.58;222972;1270;140185;-84
2023/11/23 06:03:11;;;;;;;;;;;;;;;;;;;;;
2023/11/23 06:15:03;;;;;;;;;;;;;;;;;;;;;
2023/11/23 06:20:55;;;;;;;25.80;13.90;;;;;;;1.58;100.00;100179.91;223111;1270;139500;-83
2023/11/23 06:26:49;;;;;;;26.70;11.90;;;;;;;1.64;100.00;100177.34;223105;1271;140191;-83
2023/11/23 06:32:37;;;;;;;25.80;12.20;;;;;;;1.70;100.00;100180.73;223779;1267;107258;-84
2023/11/23 06:44:39;;;;;;;19.40;10.50;;;;;;;1.89;100.00;100161.58;223741;1266;106352;-87
2023/11/23 06:50:34;;;;;;;24.30;12.40;;;;;;;1.97;100.00;100141.59;223143;1270;140138;-87
2023/11/23 06:56:25;;;;;;;25.80;11.90;;;;;;;2.03;100.00;100140.29;223171;1266;139846;-84
2023/11/23 07:02:16;;;;;;;;;;;;;;;;;;;;;
2023/11/23 07:08:18;;;;;;;18.20;9.90;;;;;;;2.19;100.00;100119.15;222981;1267;140227;-86
2023/11/23 07:13:54;;;;;;;;;;;;;;;;;;;;;
2023/11/23 07:19:36;;;;;;;;;;;;;;;2.38;100.00;100106.38;223034;1270;139825;-85
2023/11/23 07:25:36;;;;;;;;;;;;;;;;;;;;;
2023/11/23 07:31:33;;;;;;;21.10;11.00;;;;;;;2.56;100.00;100080.94;223668;1270;219989;-85
2023/11/23 07:37:33;;;;;;;23.00;11.40;;;;;;;2.65;100.00;100062.95;223097;1267;139472;-83
2023/11/23 07:43:25;;;;;;;;;;;;;;;;;;;;;
2023/11/23 07:49:19;;;;;;;;;;;;;;;;;;;;;
2023/11/23 07:55:22;;;;;;;19.50;10.90;;;;;;;2.99;100.00;100070.30;223698;1266;138944;-83
2023/11/23 08:01:22;;;;;;;20.50;10.10;;;;;;;3.09;100.00;100059.48;223302;1268;140533;-83
2023/11/23 08:07:15;;;;;;;18.80;9.80;;;;;;;3.19;100.00;100052.36;223125;1267;140252;-83
2023/11/23 08:13:16;;;;;;;22.00;9.20;;;;;;;3.27;100.00;100038.48;223641;1270;139263;-85
2023/11/23 08:19:18;;;;;;;16.20;9.30;;;;;;;3.37;100.00;100022.56;223186;1266;138902;-84
2023/11/23 08:25:22;;;;;;;18.60;10.10;;;;;;;3.45;100.00;100008.56;223660;1268;138697;-84
2023/11/23 08:31:15;;;;;;;;;;;;;;;;;;;;;
2023/11/23 08:37:19;;;;;;;19.90;9.10;;;;;;;3.62;100.00;99996.21;223158;1269;139888;-83
2023/11/23 08:43:22;;;;;;;19.50;9.40;;;;;;;3.71;100.00;99998.02;223684;1267;138537;-84
2023/11/23 08:49:22;;;;;;;16.90;8.40;;;;;;;3.78;100.00;99986.98;223125;1268;140607;-83
2023/11/23 08:54:52;;;;;;;;;;;;;;;;;;;;;
2023/11/23 09:00:54;;;;;;;16.50;8.30;;;;;;;3.99;100.00;99964.11;223100;1268;139946;-83
2023/11/23 09:12:57;;;;;;;17.30;7.70;;;;;;;4.21;100.00;99932.27;223793;1270;137347;-83
2023/11/23 09:19:11;;;;;;;15.10;7.80;;;;;;;4.32;100.00;99927.29;223017;1269;139632;-87
2023/11/23 09:25:13;;;;;;;16.10;7.80;;;;;;;4.44;100.00;99918.17;223445;1267;139246;-82
2023/11/23 09:31:13;;;;;;;15.40;8.20;;;;;;;4.55;100.00;99920.41;223005;1270;139065;-84
2023/11/23 09:37:07;;;;;;;;;;;;;;;;;;;;;
2023/11/23 09:43:02;;;;;;;13.70;7.70;;;;;;;4.77;100.00;99882.15;223567;1267;138628;-84
2023/11/23 09:48:54;;;;;;;15.20;7.40;;;;;;;4.88;100.00;99866.14;223118;1267;140710;-86
2023/11/23 09:54:50;;;;;;;;;;;;;;;;;;;;;
2023/11/23 10:00:35;;;;;;;16.50;7.40;;;;;;;5.09;100.00;99829.80;223153;1268;139755;-84
2023/11/23 10:06:36;;;;;;;16.00;8.30;;;;;;;5.16;100.00;99832.08;223154;1267;138922;-83
2023/11/23 10:12:31;;;;;;;;;;;;;;;;;;;;;
2023/11/23 10:18:33;;;;;;;13.40;7.70;;;;;;;5.28;100.00;99818.45;223025;1267;139937;-86
2023/11/23 10:24:34;;;;;;;15.80;8.20;;;;;;;5.33;100.00;99802.58;223741;1269;138791;-85
2023/11/23 10:30:39;;;;;;;19.90;8.40;;;;;;;5.37;100.00;99787.02;223155;1266;138585;-83
2023/11/23 10:36:39;;;;;;;16.60;7.80;;;;;;;5.42;100.00;99775.12;223270;1267;139828;-84
2023/11/23 10:43:06;;;;;;;14.30;8.00;;;;;;;5.45;100.00;99758.65;223729;1267;138716;-88
2023/11/23 10:48:43;;;;;;;;;;;;;;;;;;;;;
2023/11/23 10:54:45;;;;;;;13.70;8.00;;;;;;;5.57;100.00;99750.08;223973;1267;138776;-84
2023/11/23 11:00:46;;;;;;;16.90;8.20;;;;;;;5.61;100.00;99751.01;223116;1267;139160;-85
2023/11/23 11:07:18;;;;;;;12.00;7.00;;;;;;;5.65;100.00;99741.12;223167;1270;139969;-85
2023/11/23 11:19:04;;;;;;;16.30;8.00;;;;;;;5.71;100.00;99728.38;222879;1267;139310;-84
2023/11/23 11:25:06;;;;;;;14.40;8.20;;;;;;;5.73;100.00;99726.45;223571;1267;140380;-84
2023/11/23 11:30:57;;;;;;;16.20;8.80;;;;;;;5.76;100.00;99714.42;223115;1267;139249;-85
2023/11/23 11:36:50;;;;;;;;;;;;;;;;;;;;;
2023/11/23 11:48:51;;;;;;;;;;;;;;;;;;;;;
2023/11/23 12:00:54;;;;;;;13.10;7.30;;;;;;;5.92;100.00;99630.30;223156;1266;138941;-86
2023/11/23 12:06:56;;;;;;;14.50;7.60;;;;;;;5.93;100.00;99606.15;223174;1267;138813;-84
2023/11/23 12:12:47;;;;;;;;;;;;;;;;;;;;;
2023/11/23 12:19:16;;;;;;;14.50;7.80;;;;;;;5.99;100.00;99589.16;223158;1267;139952;-86
2023/11/23 12:24:42;;;;;;;17.90;7.60;;;;;;;6.03;100.00;99586.65;223654;1267;138509;-86
2023/11/23 12:30:36;;;;;;;;;;;;;;;;;;;;;
2023/11/23 12:36:38;;;;;;;15.00;7.70;;;;;;;6.08;100.00;99560.81;223203;1266;139372;-84
2023/11/23 12:42:39;;;;;;;16.20;8.80;;;;;;;6.12;100.00;99541.05;223854;1267;138694;-86
2023/11/23 12:48:31;;;;;;;14.10;8.10;;;;;;;6.14;100.00;99518.68;223165;1266;138684;-85
2023/11/23 12:54:16;;;;;;;15.40;7.80;;;;;;;6.16;100.00;99506.00;223501;1266;138675;-84
2023/11/23 13:06:18;;;;;;;;;;;;;;;;;;;;;
2023/11/23 13:12:01;;;;;;;;;;;;;;;;;;;;;
2023/11/23 13:18:04;;;;;;;14.50;8.60;;;;;;;6.29;100.00;99430.45;223253;1266;138924;-86
2023/11/23 13:24:04;;;;;;;16.20;9.20;;;;;;;6.32;100.00;99423.08;223618;1267;139600;-85
2023/11/23 13:30:07;;;;;;;16.60;9.00;;;;;;;6.35;100.00;99411.31;223176;1266;138713;-85
2023/11/23 13:36:08;;;;;;;17.40;8.70;;;;;;;6.38;100.00;99394.64;223696;1266;138810;-88
2023/11/23 13:41:57;;;;;;;14.20;8.00;;;;;;;6.41;100.00;99383.73;223615;1267;138686;-86
2023/11/23 13:53:58;;;;;;;15.70;8.50;;;;;;;6.51;100.00;99379.09;223683;1267;138708;-86
2023/11/23 14:06:02;;;;;;;15.80;8.10;;;;;;;6.61;100.00;99367.55;223577;1267;138652;-85
2023/11/23 14:12:12;;;;;;;;;;;;;;;;;;;;;
2023/11/23 14:18:06;;;;;;;;;;;;;;;;;;;;;
2023/11/23 14:24:08;;;;;;;14.40;8.70;;;;;;;6.78;100.00;99329.58;223874;1267;139088;-86
2023/11/23 14:29:54;;;;;;;14.40;8.50;;;;;;;6.85;100.00;99328.09;223154;1266;139294;-85
2023/11/23 14:35:56;;;;;;;16.60;8.90;;;;;;;6.92;100.00;99320.48;223730;1266;138664;-87
2023/11/23 14:41:52;;;;;;;14.90;8.30;;;;;;;6.99;100.00;99295.83;223608;1267;224468;-85
2023/11/23 14:47:48;;;;;;;;;;;;;;;;;;;;;
2023/11/23 14:53:40;;;;;;;12.80;7.40;;;;;;;7.13;100.00;99244.27;223704;1267;138614;-85
2023/11/23 14:59:41;;;;;;;12.30;7.30;;;;;;;7.20;100.00;99236.48;223151;1267;139382;-86
2023/11/23 15:05:33;;;;;;;12.80;6.60;;;;;;;7.26;100.00;99226.44;223629;1266;138858;-87
2023/11/23 15:11:35;;;;;;;13.00;6.20;;;;;;;7.32;100.00;99220.29;223461;1267;139252;-88
2023/11/23 15:17:36;;;;;;;12.00;6.30;;;;;;;7.39;100.00;99208.75;223373;1266;138937;-87
2023/11/23 15:23:18;;;;;;;;;;;;;;;;;;;;;
2023/11/23 15:29:06;;;;;;;13.90;6.20;;;;;;;7.54;100.00;99171.19;223058;1267;139703;-85
2023/11/23 15:35:44;;;;;;;12.10;7.20;;;;;;;7.61;100.00;99146.88;223618;1264;139061;-84
2023/11/23 15:41:03;;;;;;;;;;;;;;;;;;;;;
2023/11/23 15:47:05;;;;;;;12.60;6.80;;;;;;;7.67;100.00;99097.06;223251;1265;139325;-85
2023/11/23 15:53:06;;;;;;;11.30;6.20;;;;;;;7.71;100.00;99084.70;223876;1266;139417;-84
2023/11/23 15:58:49;;;;;;;15.50;7.70;;;;;;;7.74;100.00;99064.36;222964;1267;141011;-85
2023/11/23 16:04:50;;;;;;;11.10;6.30;;;;;;;7.75;100.00;99035.71;223966;1267;139199;-84
2023/11/23 16:10:52;;;;;;;13.70;8.30;;;;;;;7.76;100.00;99008.42;223726;1265;139892;-85
2023/11/23 16:16:56;;;;;;;13.80;8.50;;;;;;;7.79;100.00;98982.84;223314;1265;139478;-82
2023/11/23 16:22:54;;;;;;;11.90;7.10;;;;;;;7.81;100.00;98982.52;223914;1265;139296;-84
2023/11/23 16:28:46;;;;;;;16.00;9.10;;;;;;;7.85;100.00;98964.67;223427;1266;139502;-84
2023/11/23 16:34:39;;;;;;;13.60;8.20;;;;;;;7.89;100.00;98959.50;223984;1267;139285;-85
2023/11/23 16:40:41;;;;;;;12.30;8.00;;;;;;;7.93;100.00;98957.14;223330;1265;139420;-84
2023/11/23 16:52:33;;;;;;;13.50;7.70;;;;;;;8.01;100.00;98917.36;224029;1266;140098;-84
2023/11/23 16:58:34;;;;;;;18.70;9.80;;;;;;;8.05;100.00;98893.23;223340;1266;138878;-83
2023/11/23 17:04:32;;;;;;;20.60;12.00;;;;;;;8.10;100.00;98871.47;223937;1264;139351;-84
2023/11/23 17:10:33;;;;;;;13.20;8.90;;;;;;;8.15;100.00;98859.95;223330;1265;139474;-83
2023/11/23 17:16:26;;;;;;;14.80;8.70;;;;;;;8.19;100.00;98852.96;223333;1265;139675;-83
2023/11/23 17:28:28;;;;;;;14.60;8.20;;;;;;;8.25;100.00;98822.65;223230;1265;140028;-86
2023/11/23 17:34:32;;;;;;;14.30;9.40;;;;;;;8.25;100.00;98803.62;223827;1265;139075;-85
2023/11/23 17:40:26;;;;;;;14.90;9.00;;;;;;;8.26;100.00;98786.86;223317;1265;139899;-84
2023/11/23 17:46:27;;;;;;;14.70;8.90;;;;;;;8.26;100.00;98767.45;223460;1265;139648;-84
2023/11/23 17:52:45;;;;;;;;;;;;;;;;;;;;;
2023/11/23 17:58:14;;;;;;;;;;;;;;;;;;;;;
2023/11/23 18:04:16;;;;;;;17.70;11.30;;;;;;;8.30;100.00;98688.33;224068;1265;125763;-83
2023/11/23 18:10:18;;;;;;;18.70;11.10;;;;;;;8.32;100.00;98674.45;223441;1265;140313;-84
2023/11/23 18:16:09;;;;;;;17.40;10.30;;;;;;;8.35;100.00;98641.86;223940;1265;138965;-85
2023/11/23 18:22:10;;;;;;;21.40;12.70;;;;;;;8.42;100.00;98638.82;223918;1265;138882;-85
2023/11/23 18:28:11;;;;;;;18.50;10.50;;;;;;;8.50;100.00;98630.30;223381;1265;139641;-82
2023/11/23 18:34:12;;;;;;;16.60;10.20;;;;;;;8.57;100.00;98619.11;223898;1265;138806;-85
2023/11/23 18:40:07;;;;;;;;;;;;;;;;;;;;;
2023/11/23 18:46:14;;;;;;;15.20;9.40;;;;;;;8.67;100.00;98593.69;223881;1265;138665;-85
2023/11/23 18:52:14;;;;;;;13.20;7.50;;;;;;;8.72;100.00;98572.00;223752;1265;241179;-84
2023/11/23 18:58:12;;;;;;;;;;;;;;;;;;;;;
2023/11/23 19:04:15;;;;;;;14.60;7.80;;;;;;;8.85;100.00;98563.55;223997;1265;139451;-86
2023/11/23 19:10:17;;;;;;;17.80;8.20;;;;;;;8.92;100.00;98556.87;223446;1265;139387;-85
2023/11/23 19:16:09;;;;;;;15.70;7.80;;;;;;;8.95;100.00;98544.61;223934;1265;138736;-83
2023/11/23 19:28:18;;;;;;;12.10;6.80;;;;;;;8.94;100.00;98536.80;223310;1265;139793;-84
2023/11/23 19:34:18;;;;;;;14.10;7.90;;;;;;;8.91;100.00;98527.90;223774;1264;138626;-85
2023/11/23 19:40:35;;;;;;;;;;;;;;;;;;;;;
2023/11/23 19:45:59;;;;;;;;;;;;;;;8.63;100.00;98642.45;222785;1268;139904;-88
2023/11/23 19:51:51;;;;;;;7.40;2.30;;;;;;;8.26;100.00;98642.79;223860;1265;124946;-88
2023/11/23 20:04:20;;;;;;;6.20;2.40;;;;;;;7.94;100.00;98649.59;223891;1265;139182;-91
2023/11/23 20:10:07;;;;;;;10.30;2.70;;;;;;;7.90;100.00;98663.31;223362;1265;139677;-91
2023/11/23 20:16:16;;;;;;;7.40;3.10;;;;;;;7.87;100.00;98656.52;223913;1265;139536;-91
2023/11/23 20:21:38;;;;;;;8.90;2.50;;;;;;;7.77;100.00;98649.47;223656;1265;362961;-91
2023/11/23 20:27:24;;;;;;;;;;;;;;;;;;;;;
2023/11/23 20:32:48;;;;;;;6.30;1.60;;;;;;;7.62;100.00;98706.34;224290;1265;95862;-91
2023/11/23 20:38:50;;;;;;;5.00;1.60;;;;;;;7.53;100.00;98704.51;223261;1265;139043;-91
2023/11/23 20:44:52;;;;;;;11.30;2.80;;;;;;;7.40;100.00;98693.61;223843;1265;138897;-89
2023/11/23 20:50:51;;;;;;;;;;;;;;;;;;;;;
2023/11/23 20:56:45;;;;;;;;;;;;;;;;;;;;;
2023/11/23 21:02:51;;;;;;;11.50;2.90;;;;;;;6.95;100.00;98652.74;223782;1265;138818;-87
2023/11/23 21:08:53;;;;;;;16.10;4.80;;;;;;;6.84;100.00;98611.92;223283;1265;138751;-85
2023/11/23 21:14:53;;;;;;;7.80;2.10;;;;;;;6.76;100.00;98600.08;223885;1266;139225;-84
2023/11/23 21:20:46;;;;;;;;;;;;;;;;;;;;;
2023/11/23 21:26:48;;;;;;;5.80;1.70;;;;;;;6.67;100.00;98576.14;223604;1265;139644;-83
2023/11/23 21:32:32;;;;;;;8.30;2.10;;;;;;;6.65;100.00;98564.81;223964;1265;138114;-86
2023/11/23 21:38:33;;;;;;;5.30;1.70;;;;;;;6.64;100.00;98570.84;219381;1265;5383154;-91
2023/11/23 21:44:33;;;;;;;4.90;1.70;;;;;;;6.64;100.00;98588.64;223995;1265;138566;-89
2023/11/23 21:50:28;;;;;;;;;;;;;;;;;;;;;
2023/11/23 21:56:27;;;;;;;;;;;;;;;;;;;;;
2023/11/23 22:14:33;;;;;;;8.20;1.90;;;;;;;6.65;100.00;98546.23;224000;1265;139257;-89
2023/11/23 22:20:24;;;;;;;;;;;;;;;;;;;;;
2023/11/23 22:26:16;;;;;;;;;;;;;;;;;;;;;
2023/11/23 22:32:19;;;;;;;9.30;1.90;;;;;;;6.60;100.00;98492.44;224044;1265;138268;-89
2023/11/23 22:38:14;;;;;;;12.80;1.80;;;;;;;6.57;100.00;98525.09;223526;1265;139064;-92
2023/11/23 22:44:36;;;;;;;11.20;2.00;;;;;;;6.56;100.00;98527.29;224052;1265;138578;-91
2023/11/23 22:50:19;;;;;;;10.70;1.80;;;;;;;6.52;100.00;98538.63;223401;1265;139345;-91
2023/11/23 22:56:20;;;;;;;9.80;2.00;;;;;;;6.49;100.00;98542.70;223944;1265;138424;-91
2023/11/23 23:02:21;;;;;;;9.30;1.90;;;;;;;6.48;100.00;98538.95;224058;1265;138939;-90
2023/11/23 23:08:23;;;;;;;11.30;1.80;;;;;;;6.48;100.00;98533.65;223640;1264;139249;-87
2023/11/23 23:14:27;;;;;;;7.80;2.30;;;;;;;6.48;100.00;98534.96;224056;1265;138484;-91
2023/11/23 23:20:25;;;;;;;9.10;1.80;;;;;;;6.47;100.00;98528.10;223317;1266;139449;-90
2023/11/23 23:26:35;;;;;;;9.80;2.30;;;;;;;6.46;100.00;98521.08;223601;1265;139943;-93
2023/11/23 23:32:28;;;;;;;;;;;;;;;;;;;;;
2023/11/23 23:38:22;;;;;;;;;;;;;;;;;;;;;
2023/11/23 23:44:21;;;;;;;;;;;;;;;;;;;;;
2023/11/23 23:50:06;;;;;;;12.00;2.20;;;;;;;6.19;100.00;98541.05;223451;1265;139464;-89
